Terminal Aerodrome Forecast
Issued by NWS

Home | Current Version | Previous Version | Text Only | Print | Product List | Glossary On
Versions: 1 2 3 4 5 6 7 8 9 10 11 12 13
000
FTUS46 KMTR 230525
TAFMRY
TAF
KMRY 230525Z 2306/2406 26011G18KT P6SM SCT040
     FM231500 23009G15KT P6SM FEW050
     FM231800 29008KT P6SM FEW040
     FM240400 25006KT P6SM SKC=

USA.gov is the U.S. government's official web portal to all federal, state and local government web resources and services.